Decoded Metar for KFBG (FORT BRAGG/SIMMO in NC, USA) (IATA:FBG) | Meteo·Mobile Aviation Weather
aviador You're here:

KFBG Decoded Metar

FORT BRAGG/SIMMO in NC, USA
Report Time2019-06-18 13:56:00
UTC Time2019-06-18 14:39:41
Flight Rules vfr VFR
Wind210° at 08 kt
W.Decomp.*RWY 27: 4.8 kt HW 6.4 kt LCW
Visibility9999 m
Phenomena:N/A
Clouds:N/A
Expected CloudBase > 2,400 ft AGL from Temp-Dew spread
CeilingNone
Temp28°C (ISA +13)
Dew Point22°C (70% RH)
Heat Index30.7°C
QNH1017 hPa
Density Alt2,008 ft
Elevation243 ft
Report Wrong Elevation
Raw Report
KFBG 181356Z AUTO 21008KT 10SM CLR 28/22 A3003 RMK AO2 SLP169
T02830215 $=

Extra information for KFBG:More info

Metar Taf Metar & Taf Last 4 Metars F.Rules Stats Wind Profile Meteogram Temp Stats Airport Information Weather charts Add Link Nearby VenuesMetar ALERT Operation Metar Decoded Social comments

AIRNAV info for KFBG